Terminal Aerodrome Forecast
Issued by NWS

Home | Current Version | Previous Version | Text Only | Print | Product List | Glossary On
Versions: 1 2 3 4 5 6 7 8 9 10 11 12 13 14 15 16
000
FTUS45 KABQ 012300
TAFAEG
TAF
KAEG 012340Z 0200/0224 15011KT P6SM VCSH SCT060 BKN100
      TEMPO 0201/0203 -SHRA BKN050
     FM020400 15008KT P6SM BKN050 OVC080
     FM021200 02006KT P6SM SCT040 BKN080
     FM021800 12006KT P6SM SCT050 BKN100
     FM022100 15010KT P6SM VCTS SCT060CB BKN120=

USA.gov is the U.S. government's official web portal to all federal, state and local government web resources and services.